createdAt,value
2019-05-03T00:02:21.775Z,19.70
2019-05-03T00:07:42.085Z,14.33
2019-05-03T00:13:01.932Z,16.37
2019-05-03T00:18:22.125Z,16.40
2019-05-03T00:23:41.802Z,21.30
2019-05-03T00:29:02.170Z,18.50
2019-05-03T00:34:41.837Z,20.30
2019-05-03T00:40:05.015Z,18.87
2019-05-03T00:45:23.680Z,16.43
2019-05-03T00:50:42.592Z,23.17
2019-05-03T00:56:01.772Z,22.17
2019-05-03T01:01:22.413Z,21.10
2019-05-03T01:06:42.386Z,22.23
2019-05-03T01:12:01.960Z,18.67
2019-05-03T01:17:22.458Z,19.43
2019-05-03T01:22:42.514Z,31.47
2019-05-03T01:28:01.597Z,21.40
2019-05-03T01:33:20.356Z,22.83
2019-05-03T01:38:38.987Z,22.00
2019-05-03T01:43:58.178Z,21.27
2019-05-03T01:49:22.861Z,23.03
2019-05-03T01:54:42.703Z,19.57
2019-05-03T02:00:02.797Z,28.77
2019-05-03T02:05:39.667Z,24.95
2019-05-03T02:10:58.447Z,18.90
2019-05-03T02:16:17.117Z,21.87
2019-05-03T02:21:35.892Z,23.13
2019-05-03T02:26:54.479Z,25.13
2019-05-03T02:32:13.424Z,18.90
2019-05-03T02:37:33.095Z,21.97
2019-05-03T02:43:05.878Z,21.10
2019-05-03T02:48:26.085Z,27.60
2019-05-03T02:53:45.700Z,23.27
2019-05-03T02:59:06.199Z,21.53
2019-05-03T03:04:26.560Z,22.37
2019-05-03T03:09:46.180Z,20.90
2019-05-03T03:15:06.349Z,19.13
2019-05-03T03:20:26.028Z,16.20
2019-05-03T03:25:50.133Z,17.20
2019-05-03T03:31:28.230Z,15.53
2019-05-03T03:37:01.006Z,14.80
2019-05-03T03:42:16.071Z,20.57
2019-05-03T03:47:38.200Z,15.17
2019-05-03T03:52:59.178Z,14.67
2019-05-03T03:58:23.013Z,18.77
2019-05-03T04:03:38.948Z,23.47
2019-05-03T04:08:57.695Z,21.70
2019-05-03T04:14:18.172Z,18.67
2019-05-03T04:19:38.481Z,22.33
2019-05-03T04:24:57.146Z,14.13
2019-05-03T04:30:16.538Z,15.37
2019-05-03T04:35:36.319Z,17.47
2019-05-03T04:40:56.231Z,12.53
2019-05-03T04:46:25.480Z,14.00
2019-05-03T04:51:46.253Z,11.00
2019-05-03T04:57:06.579Z,18.90
2019-05-03T05:02:26.646Z,15.77
2019-05-03T05:07:45.861Z,14.67
2019-05-03T05:13:05.440Z,16.37
2019-05-03T05:18:35.562Z,17.27
2019-05-03T05:23:59.069Z,23.10
2019-05-03T05:29:19.343Z,12.90
2019-05-03T05:34:38.021Z,20.50
2019-05-03T05:39:56.577Z,22.03
2019-05-03T05:45:15.433Z,13.78
2019-05-03T05:50:38.742Z,23.03
2019-05-03T05:55:59.061Z,11.17
2019-05-03T06:01:19.331Z,15.47
2019-05-03T06:06:51.656Z,10.90
2019-05-03T06:12:11.924Z,10.43
2019-05-03T06:17:35.200Z,15.67
2019-05-03T06:22:55.418Z,17.60
2019-05-03T06:28:20.679Z,15.50
2019-05-03T06:33:36.097Z,14.07
2019-05-03T06:38:54.855Z,16.30
2019-05-03T06:44:14.505Z,13.83
2019-05-03T06:49:34.558Z,17.10
2019-05-03T06:54:55.231Z,11.77
2019-05-03T07:00:18.418Z,19.30
2019-05-03T07:05:50.606Z,8.43
2019-05-03T07:11:10.399Z,13.47
2019-05-03T07:16:29.050Z,14.57
2019-05-03T07:21:47.799Z,11.53
2019-05-03T07:27:06.477Z,13.13
2019-05-03T07:32:25.198Z,8.23
2019-05-03T07:37:45.085Z,5.23
2019-05-03T07:43:04.551Z,17.87
2019-05-03T07:48:25.277Z,8.07
2019-05-03T07:53:45.119Z,5.37
2019-05-03T07:59:06.456Z,7.27
2019-05-03T08:04:25.532Z,7.97
2019-05-03T08:09:45.298Z,12.27
2019-05-03T08:15:06.219Z,6.73
2019-05-03T08:20:24.974Z,13.07
2019-05-03T08:25:44.646Z,10.33
2019-05-03T08:31:23.898Z,13.07
2019-05-03T08:36:58.770Z,10.57
2019-05-03T08:42:19.029Z,7.10
2019-05-03T08:47:37.666Z,7.83
2019-05-03T08:52:56.216Z,4.93
2019-05-03T08:58:15.484Z,9.13
2019-05-03T09:03:37.987Z,3.97
2019-05-03T09:08:57.248Z,5.67
2019-05-03T09:14:17.150Z,6.80
2019-05-03T09:19:35.864Z,8.77
2019-05-03T09:24:54.773Z,10.07
2019-05-03T09:30:14.646Z,8.90
2019-05-03T09:35:35.875Z,6.23
2019-05-03T09:40:54.581Z,10.33
2019-05-03T09:46:14.536Z,9.80
2019-05-03T09:51:35.003Z,5.97
2019-05-03T09:57:00.090Z,7.10
2019-05-03T10:02:18.777Z,6.65
2019-05-03T10:07:37.361Z,7.93
2019-05-03T10:12:56.140Z,7.50
2019-05-03T10:18:16.701Z,4.10
2019-05-03T10:23:37.007Z,9.73
2019-05-03T10:28:55.724Z,3.63
2019-05-03T10:34:15.549Z,11.77
2019-05-03T10:39:36.121Z,13.03
2019-05-03T10:44:55.521Z,11.67
2019-05-03T10:50:15.579Z,7.53
2019-05-03T10:55:35.747Z,8.10
2019-05-03T11:00:56.698Z,5.93
2019-05-03T11:06:15.033Z,8.70
2019-05-03T11:11:35.166Z,5.22
2019-05-03T11:16:55.281Z,10.00
2019-05-03T11:22:14.581Z,8.63
2019-05-03T11:27:44.684Z,2.93
2019-05-03T11:33:05.066Z,7.73
2019-05-03T11:38:25.555Z,2.37
2019-05-03T11:43:44.411Z,2.30
2019-05-03T11:49:05.545Z,4.43
2019-05-03T11:54:25.006Z,1.67
2019-05-03T11:59:45.264Z,3.47
2019-05-03T12:05:06.696Z,7.00
2019-05-03T12:10:50.956Z,3.77
2019-05-03T12:15:45.943Z,4.63
2019-05-03T12:35:35.752Z,4.30
2019-05-03T12:40:54.754Z,4.73
2019-05-03T12:46:16.692Z,4.40
2019-05-03T12:51:34.518Z,5.63
2019-05-03T12:56:53.315Z,4.87
2019-05-03T13:02:19.337Z,7.10
2019-05-03T13:07:39.594Z,7.30
2019-05-03T13:12:58.296Z,4.00
2019-05-03T13:18:16.914Z,11.90
2019-05-03T13:23:35.851Z,3.13
2019-05-03T13:28:55.380Z,9.23
2019-05-03T13:34:15.911Z,4.87
2019-05-03T13:39:35.944Z,6.20
2019-05-03T13:44:55.288Z,4.90
2019-05-03T13:50:15.133Z,6.45
2019-05-03T13:55:35.302Z,3.40
2019-05-03T14:00:54.915Z,4.27
2019-05-03T14:06:13.849Z,6.87
2019-05-03T14:11:32.406Z,9.77
2019-05-03T14:16:51.118Z,7.13
2019-05-03T14:22:11.467Z,5.23
2019-05-03T14:27:30.151Z,6.20
2019-05-03T14:32:49.051Z,6.70
2019-05-03T14:38:07.674Z,10.33
2019-05-03T14:43:26.309Z,4.73
2019-05-03T14:48:45.802Z,5.00
2019-05-03T14:54:05.685Z,6.90
2019-05-03T14:59:28.948Z,13.83
2019-05-03T15:04:47.789Z,31.60
2019-05-03T15:10:07.364Z,6.47
2019-05-03T15:15:28.697Z,9.77
2019-05-03T15:20:46.359Z,6.57
2019-05-03T15:26:05.295Z,6.47
2019-05-03T15:31:24.570Z,9.30
2019-05-03T15:36:45.030Z,12.40
2019-05-03T15:42:05.257Z,11.57
2019-05-03T15:47:28.644Z,7.27
2019-05-03T15:52:47.384Z,7.20
2019-05-03T15:58:06.303Z,10.17
2019-05-03T16:03:25.348Z,7.20
2019-05-03T16:08:44.655Z,8.50
2019-05-03T16:14:04.545Z,11.10
2019-05-03T16:19:24.310Z,7.07
2019-05-03T16:24:46.826Z,7.62
2019-05-03T16:30:06.803Z,7.50
2019-05-03T16:35:25.683Z,7.40
2019-05-03T16:40:45.144Z,3.53
2019-05-03T16:46:05.625Z,4.27
2019-05-03T16:51:25.404Z,9.93
2019-05-03T16:56:44.412Z,6.17
2019-05-03T17:02:03.427Z,10.73
2019-05-03T17:07:40.296Z,10.03
2019-05-03T17:12:58.987Z,8.23
2019-05-03T17:18:17.601Z,7.30
2019-05-03T17:23:36.229Z,7.73
2019-05-03T17:28:55.453Z,7.33
2019-05-03T17:34:14.472Z,7.50
2019-05-03T17:39:51.235Z,11.77
2019-05-03T17:45:11.539Z,8.97
2019-05-03T17:50:30.197Z,11.57
2019-05-03T17:55:50.475Z,5.67
2019-05-03T18:01:25.623Z,10.87
2019-05-03T18:06:58.097Z,9.73
2019-05-03T18:12:16.732Z,5.20
2019-05-03T18:17:35.397Z,8.43
2019-05-03T18:22:54.684Z,5.57
2019-05-03T18:28:14.863Z,8.13
2019-05-03T18:33:33.606Z,8.17
2019-05-03T18:38:52.317Z,8.00
2019-05-03T18:44:18.218Z,9.00
2019-05-03T18:49:37.056Z,6.67
2019-05-03T18:54:55.720Z,11.00
2019-05-03T19:00:17.034Z,5.30
2019-05-03T19:05:40.258Z,18.37
2019-05-03T19:11:06.158Z,8.60
2019-05-03T19:16:32.659Z,17.40
2019-05-03T19:21:51.335Z,7.00
2019-05-03T19:27:10.216Z,9.13
2019-05-03T19:32:28.869Z,10.07
2019-05-03T19:37:47.507Z,6.80
2019-05-03T19:43:06.181Z,7.87
2019-05-03T19:48:25.596Z,6.55
2019-05-03T19:53:48.876Z,7.93
2019-05-03T19:59:09.540Z,14.97
2019-05-03T20:04:29.818Z,10.00
2019-05-03T20:09:48.589Z,9.17
2019-05-03T20:15:07.510Z,8.13
2019-05-03T20:20:26.140Z,9.03
2019-05-03T20:25:44.956Z,12.17
2019-05-03T20:31:04.995Z,6.12
2019-05-03T20:36:23.597Z,10.83
2019-05-03T20:41:42.321Z,11.57
2019-05-03T20:47:08.442Z,10.37
2019-05-03T20:52:27.077Z,10.93
2019-05-03T20:57:45.785Z,15.45
2019-05-03T21:03:04.929Z,18.33
2019-05-03T21:08:25.437Z,17.50
2019-05-03T21:13:45.007Z,16.23
2019-05-03T21:19:05.398Z,16.33
2019-05-03T21:24:26.192Z,16.23
2019-05-03T21:29:49.573Z,13.30
2019-05-03T21:35:08.390Z,14.00
2019-05-03T21:40:27.037Z,16.07
2019-05-03T21:45:47.249Z,17.57
2019-05-03T21:51:06.174Z,18.20
2019-05-03T21:56:25.067Z,15.40
2019-05-03T22:01:45.720Z,14.87
2019-05-03T22:07:05.205Z,20.53
2019-05-03T22:12:24.892Z,16.33
2019-05-03T22:17:54.028Z,17.30
2019-05-03T22:23:31.955Z,19.50
2019-05-03T22:28:50.515Z,16.20
2019-05-03T22:34:09.153Z,20.73
2019-05-03T22:39:27.782Z,25.05
2019-05-03T22:44:46.708Z,23.33
2019-05-03T22:50:06.076Z,22.03
2019-05-03T22:55:24.787Z,22.77
2019-05-03T23:00:44.545Z,24.30
2019-05-03T23:06:05.011Z,21.73
2019-05-03T23:11:24.525Z,23.73
2019-05-03T23:16:44.835Z,26.37
2019-05-03T23:22:08.363Z,25.30
2019-05-03T23:27:26.838Z,20.17
2019-05-03T23:32:45.582Z,22.00
2019-05-03T23:38:04.824Z,19.07
2019-05-03T23:43:25.167Z,26.10
2019-05-03T23:48:44.645Z,19.15
2019-05-03T23:54:05.591Z,18.43
2019-05-03T23:59:24.366Z,17.00
